sensor_id;sensor_type;location;lat;lon;timestamp;P1;durP1;ratioP1;P2;durP2;ratioP2
34673;SDS011;20879;55.668;37.858;2022-08-05T00:00:22;33.50;;;25.60;;
34673;SDS011;20879;55.668;37.858;2022-08-05T00:02:53;33.42;;;26.33;;
34673;SDS011;20879;55.668;37.858;2022-08-05T00:05:23;37.67;;;26.10;;
34673;SDS011;20879;55.668;37.858;2022-08-05T00:08:13;35.30;;;25.63;;
34673;SDS011;20879;55.668;37.858;2022-08-05T00:11:01;38.10;;;24.85;;
34673;SDS011;20879;55.668;37.858;2022-08-05T00:13:49;31.40;;;23.90;;
34673;SDS011;20879;55.668;37.858;2022-08-05T00:16:19;30.98;;;24.50;;
34673;SDS011;20879;55.668;37.858;2022-08-05T00:19:04;35.60;;;23.55;;
34673;SDS011;20879;55.668;37.858;2022-08-05T00:21:33;30.73;;;22.13;;
34673;SDS011;20879;55.668;37.858;2022-08-05T00:24:11;32.83;;;22.00;;
34673;SDS011;20879;55.668;37.858;2022-08-05T00:26:50;26.73;;;21.80;;
34673;SDS011;20879;55.668;37.858;2022-08-05T00:29:20;29.65;;;22.08;;
34673;SDS011;20879;55.668;37.858;2022-08-05T00:34:43;26.83;;;19.92;;
34673;SDS011;20879;55.668;37.858;2022-08-05T00:37:33;27.10;;;21.15;;
34673;SDS011;20879;55.668;37.858;2022-08-05T00:40:20;28.25;;;21.02;;
34673;SDS011;20879;55.668;37.858;2022-08-05T00:42:55;26.80;;;21.48;;
34673;SDS011;20879;55.668;37.858;2022-08-05T00:45:25;27.38;;;22.23;;
34673;SDS011;20879;55.668;37.858;2022-08-05T00:48:10;28.67;;;20.60;;
34673;SDS011;20879;55.668;37.858;2022-08-05T00:50:45;28.20;;;19.48;;
34673;SDS011;20879;55.668;37.858;2022-08-05T00:53:17;26.13;;;20.10;;
34673;SDS011;20879;55.668;37.858;2022-08-05T00:56:08;28.13;;;20.67;;
34673;SDS011;20879;55.668;37.858;2022-08-05T00:58:43;26.67;;;19.98;;
34673;SDS011;20879;55.668;37.858;2022-08-05T01:01:13;25.00;;;20.30;;
34673;SDS011;20879;55.668;37.858;2022-08-05T01:04:14;27.40;;;20.15;;
34673;SDS011;20879;55.668;37.858;2022-08-05T01:06:54;32.15;;;21.10;;
34673;SDS011;20879;55.668;37.858;2022-08-05T01:09:24;29.40;;;20.48;;
34673;SDS011;20879;55.668;37.858;2022-08-05T01:11:57;37.95;;;22.27;;
34673;SDS011;20879;55.668;37.858;2022-08-05T01:14:46;28.17;;;21.55;;
34673;SDS011;20879;55.668;37.858;2022-08-05T01:17:21;28.13;;;22.25;;
34673;SDS011;20879;55.668;37.858;2022-08-05T01:20:11;29.95;;;21.73;;
34673;SDS011;20879;55.668;37.858;2022-08-05T01:22:54;27.70;;;21.02;;
34673;SDS011;20879;55.668;37.858;2022-08-05T01:28:57;25.75;;;20.45;;
34673;SDS011;20879;55.668;37.858;2022-08-05T01:31:33;32.72;;;21.10;;
34673;SDS011;20879;55.668;37.858;2022-08-05T01:34:11;29.00;;;23.42;;
34673;SDS011;20879;55.668;37.858;2022-08-05T01:36:48;30.60;;;23.77;;
34673;SDS011;20879;55.668;37.858;2022-08-05T01:39:26;28.52;;;23.42;;
34673;SDS011;20879;55.668;37.858;2022-08-05T01:42:13;36.33;;;25.45;;
34673;SDS011;20879;55.668;37.858;2022-08-05T01:44:50;36.40;;;26.80;;
34673;SDS011;20879;55.668;37.858;2022-08-05T01:47:25;35.38;;;26.15;;
34673;SDS011;20879;55.668;37.858;2022-08-05T01:50:09;34.80;;;27.77;;
34673;SDS011;20879;55.668;37.858;2022-08-05T01:52:43;41.15;;;29.40;;
34673;SDS011;20879;55.668;37.858;2022-08-05T01:55:16;39.78;;;28.35;;
34673;SDS011;20879;55.668;37.858;2022-08-05T01:57:50;34.08;;;26.58;;
34673;SDS011;20879;55.668;37.858;2022-08-05T02:00:43;41.25;;;28.23;;
34673;SDS011;20879;55.668;37.858;2022-08-05T02:03:17;43.63;;;30.15;;
34673;SDS011;20879;55.668;37.858;2022-08-05T02:05:58;47.70;;;34.83;;
34673;SDS011;20879;55.668;37.858;2022-08-05T02:08:38;59.90;;;41.40;;
34673;SDS011;20879;55.668;37.858;2022-08-05T02:11:25;54.00;;;36.88;;
34673;SDS011;20879;55.668;37.858;2022-08-05T02:14:01;63.75;;;39.95;;
34673;SDS011;20879;55.668;37.858;2022-08-05T02:16:44;63.00;;;39.65;;
34673;SDS011;20879;55.668;37.858;2022-08-05T02:19:21;62.05;;;41.20;;
34673;SDS011;20879;55.668;37.858;2022-08-05T02:22:02;62.00;;;42.72;;
34673;SDS011;20879;55.668;37.858;2022-08-05T02:24:54;66.63;;;43.97;;
34673;SDS011;20879;55.668;37.858;2022-08-05T02:27:31;69.93;;;46.15;;
34673;SDS011;20879;55.668;37.858;2022-08-05T02:30:27;68.57;;;45.30;;
34673;SDS011;20879;55.668;37.858;2022-08-05T02:33:04;62.97;;;43.47;;
34673;SDS011;20879;55.668;37.858;2022-08-05T02:35:39;56.70;;;41.65;;
34673;SDS011;20879;55.668;37.858;2022-08-05T02:38:24;65.72;;;41.80;;
34673;SDS011;20879;55.668;37.858;2022-08-05T02:41:03;60.72;;;42.78;;
34673;SDS011;20879;55.668;37.858;2022-08-05T02:46:51;55.08;;;37.35;;
34673;SDS011;20879;55.668;37.858;2022-08-05T02:49:31;51.20;;;35.95;;
34673;SDS011;20879;55.668;37.858;2022-08-05T02:52:08;50.13;;;37.00;;
34673;SDS011;20879;55.668;37.858;2022-08-05T02:54:56;43.45;;;30.60;;
34673;SDS011;20879;55.668;37.858;2022-08-05T02:57:37;35.88;;;27.52;;
34673;SDS011;20879;55.668;37.858;2022-08-05T03:00:28;38.45;;;29.20;;
34673;SDS011;20879;55.668;37.858;2022-08-05T03:03:00;37.72;;;27.67;;
34673;SDS011;20879;55.668;37.858;2022-08-05T03:05:38;31.08;;;21.75;;
34673;SDS011;20879;55.668;37.858;2022-08-05T03:08:29;30.60;;;22.85;;
34673;SDS011;20879;55.668;37.858;2022-08-05T03:11:00;28.33;;;21.73;;
34673;SDS011;20879;55.668;37.858;2022-08-05T03:13:51;29.02;;;21.80;;
34673;SDS011;20879;55.668;37.858;2022-08-05T03:16:30;29.27;;;21.10;;
34673;SDS011;20879;55.668;37.858;2022-08-05T03:19:02;29.05;;;21.33;;
34673;SDS011;20879;55.668;37.858;2022-08-05T03:21:55;28.05;;;18.85;;
34673;SDS011;20879;55.668;37.858;2022-08-05T03:24:25;24.15;;;19.05;;
34673;SDS011;20879;55.668;37.858;2022-08-05T03:43:51;21.00;;;16.60;;
34673;SDS011;20879;55.668;37.858;2022-08-05T03:46:40;22.08;;;16.65;;
34673;SDS011;20879;55.668;37.858;2022-08-05T03:49:12;26.38;;;17.35;;
34673;SDS011;20879;55.668;37.858;2022-08-05T03:51:45;23.67;;;17.20;;
34673;SDS011;20879;55.668;37.858;2022-08-05T03:54:49;27.63;;;17.25;;
34673;SDS011;20879;55.668;37.858;2022-08-05T03:57:43;24.27;;;16.80;;
34673;SDS011;20879;55.668;37.858;2022-08-05T04:00:16;22.35;;;16.25;;
34673;SDS011;20879;55.668;37.858;2022-08-05T04:02:53;26.80;;;16.60;;
34673;SDS011;20879;55.668;37.858;2022-08-05T04:05:26;22.33;;;15.82;;
34673;SDS011;20879;55.668;37.858;2022-08-05T04:08:01;21.88;;;16.50;;
34673;SDS011;20879;55.668;37.858;2022-08-05T04:10:55;23.83;;;16.58;;
34673;SDS011;20879;55.668;37.858;2022-08-05T04:13:26;20.00;;;16.10;;
34673;SDS011;20879;55.668;37.858;2022-08-05T04:16:17;21.17;;;16.40;;
34673;SDS011;20879;55.668;37.858;2022-08-05T04:18:52;19.85;;;15.95;;
34673;SDS011;20879;55.668;37.858;2022-08-05T04:45:14;24.43;;;16.17;;
34673;SDS011;20879;55.668;37.858;2022-08-05T04:48:06;21.83;;;15.60;;
34673;SDS011;20879;55.668;37.858;2022-08-05T04:50:54;18.77;;;15.32;;
34673;SDS011;20879;55.668;37.858;2022-08-05T04:53:30;22.67;;;16.60;;
34673;SDS011;20879;55.668;37.858;2022-08-05T04:56:02;19.05;;;15.98;;
34673;SDS011;20879;55.668;37.858;2022-08-05T04:58:53;23.20;;;16.40;;
34673;SDS011;20879;55.668;37.858;2022-08-05T05:01:29;18.90;;;15.00;;
34673;SDS011;20879;55.668;37.858;2022-08-05T05:04:20;20.10;;;16.52;;
34673;SDS011;20879;55.668;37.858;2022-08-05T05:06:53;20.05;;;15.38;;
34673;SDS011;20879;55.668;37.858;2022-08-05T05:09:26;22.33;;;17.05;;
34673;SDS011;20879;55.668;37.858;2022-08-05T05:11:57;19.17;;;15.57;;
34673;SDS011;20879;55.668;37.858;2022-08-05T05:14:32;27.88;;;15.40;;
34673;SDS011;20879;55.668;37.858;2022-08-05T05:17:04;24.02;;;15.88;;
34673;SDS011;20879;55.668;37.858;2022-08-05T05:19:35;20.20;;;15.60;;
34673;SDS011;20879;55.668;37.858;2022-08-05T05:28:16;17.67;;;13.95;;
34673;SDS011;20879;55.668;37.858;2022-08-05T05:30:46;21.88;;;14.95;;
34673;SDS011;20879;55.668;37.858;2022-08-05T05:33:18;17.35;;;12.52;;
34673;SDS011;20879;55.668;37.858;2022-08-05T05:35:49;18.95;;;13.23;;
34673;SDS011;20879;55.668;37.858;2022-08-05T05:38:18;19.45;;;13.82;;
34673;SDS011;20879;55.668;37.858;2022-08-05T05:40:53;20.40;;;13.70;;
34673;SDS011;20879;55.668;37.858;2022-08-05T05:43:24;22.50;;;14.23;;
34673;SDS011;20879;55.668;37.858;2022-08-05T05:46:13;19.70;;;13.60;;
34673;SDS011;20879;55.668;37.858;2022-08-05T05:48:49;20.88;;;14.50;;
34673;SDS011;20879;55.668;37.858;2022-08-05T05:53:48;18.60;;;13.23;;
34673;SDS011;20879;55.668;37.858;2022-08-05T05:56:26;19.10;;;12.73;;
34673;SDS011;20879;55.668;37.858;2022-08-05T05:59:01;23.88;;;14.38;;
34673;SDS011;20879;55.668;37.858;2022-08-05T06:01:33;22.88;;;14.00;;
34673;SDS011;20879;55.668;37.858;2022-08-05T06:04:08;19.00;;;12.85;;
34673;SDS011;20879;55.668;37.858;2022-08-05T06:06:40;20.92;;;13.25;;
34673;SDS011;20879;55.668;37.858;2022-08-05T06:09:15;22.25;;;13.48;;
34673;SDS011;20879;55.668;37.858;2022-08-05T06:12:02;16.75;;;12.40;;
34673;SDS011;20879;55.668;37.858;2022-08-05T06:14:35;22.35;;;13.23;;
34673;SDS011;20879;55.668;37.858;2022-08-05T06:17:06;15.88;;;12.13;;
34673;SDS011;20879;55.668;37.858;2022-08-05T06:19:51;24.23;;;12.52;;
34673;SDS011;20879;55.668;37.858;2022-08-05T06:22:27;24.85;;;12.38;;
34673;SDS011;20879;55.668;37.858;2022-08-05T06:24:59;24.67;;;12.48;;
34673;SDS011;20879;55.668;37.858;2022-08-05T06:27:50;19.73;;;11.88;;
34673;SDS011;20879;55.668;37.858;2022-08-05T06:30:39;19.80;;;11.20;;
34673;SDS011;20879;55.668;37.858;2022-08-05T06:33:08;16.58;;;11.15;;
34673;SDS011;20879;55.668;37.858;2022-08-05T06:35:46;21.58;;;10.95;;
34673;SDS011;20879;55.668;37.858;2022-08-05T06:38:35;19.10;;;11.20;;
34673;SDS011;20879;55.668;37.858;2022-08-05T06:41:12;19.77;;;11.73;;
34673;SDS011;20879;55.668;37.858;2022-08-05T06:43:42;17.55;;;11.48;;
34673;SDS011;20879;55.668;37.858;2022-08-05T06:46:27;19.92;;;11.80;;
34673;SDS011;20879;55.668;37.858;2022-08-05T06:48:57;18.25;;;11.63;;
34673;SDS011;20879;55.668;37.858;2022-08-05T06:51:33;14.27;;;10.20;;
34673;SDS011;20879;55.668;37.858;2022-08-05T06:54:06;22.13;;;11.38;;
34673;SDS011;20879;55.668;37.858;2022-08-05T06:56:43;16.50;;;10.45;;
34673;SDS011;20879;55.668;37.858;2022-08-05T06:59:20;24.80;;;10.73;;
34673;SDS011;20879;55.668;37.858;2022-08-05T07:01:50;15.75;;;10.38;;
34673;SDS011;20879;55.668;37.858;2022-08-05T07:04:19;24.33;;;10.80;;
34673;SDS011;20879;55.668;37.858;2022-08-05T07:06:50;23.33;;;10.10;;
34673;SDS011;20879;55.668;37.858;2022-08-05T07:09:19;13.60;;;9.00;;
34673;SDS011;20879;55.668;37.858;2022-08-05T07:11:50;12.68;;;9.10;;
34673;SDS011;20879;55.668;37.858;2022-08-05T07:14:26;17.02;;;9.00;;
34673;SDS011;20879;55.668;37.858;2022-08-05T07:17:10;17.85;;;8.45;;
34673;SDS011;20879;55.668;37.858;2022-08-05T07:19:59;13.88;;;7.80;;
34673;SDS011;20879;55.668;37.858;2022-08-05T07:22:50;18.02;;;7.97;;
34673;SDS011;20879;55.668;37.858;2022-08-05T07:25:19;13.38;;;7.93;;
34673;SDS011;20879;55.668;37.858;2022-08-05T07:28:09;12.15;;;7.97;;
34673;SDS011;20879;55.668;37.858;2022-08-05T07:30:43;14.57;;;8.35;;
34673;SDS011;20879;55.668;37.858;2022-08-05T07:33:20;15.57;;;8.38;;
34673;SDS011;20879;55.668;37.858;2022-08-05T07:36:04;15.07;;;8.50;;
34673;SDS011;20879;55.668;37.858;2022-08-05T07:38:50;12.27;;;8.02;;
34673;SDS011;20879;55.668;37.858;2022-08-05T07:41:21;13.65;;;7.57;;
34673;SDS011;20879;55.668;37.858;2022-08-05T07:44:11;13.10;;;6.95;;
34673;SDS011;20879;55.668;37.858;2022-08-05T07:46:45;10.82;;;6.53;;
34673;SDS011;20879;55.668;37.858;2022-08-05T07:49:16;11.57;;;7.03;;
34673;SDS011;20879;55.668;37.858;2022-08-05T07:51:46;11.38;;;6.18;;
34673;SDS011;20879;55.668;37.858;2022-08-05T07:54:23;11.32;;;7.45;;
34673;SDS011;20879;55.668;37.858;2022-08-05T07:56:59;11.95;;;7.10;;
34673;SDS011;20879;55.668;37.858;2022-08-05T07:59:50;11.55;;;7.20;;
34673;SDS011;20879;55.668;37.858;2022-08-05T08:02:22;11.07;;;6.70;;
34673;SDS011;20879;55.668;37.858;2022-08-05T08:05:12;13.38;;;7.00;;
34673;SDS011;20879;55.668;37.858;2022-08-05T08:07:43;10.30;;;6.75;;
34673;SDS011;20879;55.668;37.858;2022-08-05T08:10:28;11.32;;;7.35;;
34673;SDS011;20879;55.668;37.858;2022-08-05T08:13:00;10.68;;;6.57;;
34673;SDS011;20879;55.668;37.858;2022-08-05T08:15:29;13.43;;;7.25;;
34673;SDS011;20879;55.668;37.858;2022-08-05T08:18:18;10.20;;;6.38;;
34673;SDS011;20879;55.668;37.858;2022-08-05T08:20:49;8.40;;;5.95;;
34673;SDS011;20879;55.668;37.858;2022-08-05T08:23:29;9.07;;;6.18;;
34673;SDS011;20879;55.668;37.858;2022-08-05T08:26:21;7.50;;;6.22;;
34673;SDS011;20879;55.668;37.858;2022-08-05T08:28:56;7.78;;;6.50;;
34673;SDS011;20879;55.668;37.858;2022-08-05T08:31:46;7.53;;;5.78;;
34673;SDS011;20879;55.668;37.858;2022-08-05T08:34:19;7.95;;;5.88;;
34673;SDS011;20879;55.668;37.858;2022-08-05T08:36:59;9.50;;;6.03;;
34673;SDS011;20879;55.668;37.858;2022-08-05T08:39:31;8.35;;;6.25;;
34673;SDS011;20879;55.668;37.858;2022-08-05T08:42:07;9.80;;;6.22;;
34673;SDS011;20879;55.668;37.858;2022-08-05T08:44:57;7.13;;;5.90;;
34673;SDS011;20879;55.668;37.858;2022-08-05T08:47:48;8.43;;;6.05;;
34673;SDS011;20879;55.668;37.858;2022-08-05T08:53:29;7.22;;;5.88;;
34673;SDS011;20879;55.668;37.858;2022-08-05T08:56:10;11.18;;;6.18;;
34673;SDS011;20879;55.668;37.858;2022-08-05T08:58:43;8.02;;;6.50;;
34673;SDS011;20879;55.668;37.858;2022-08-05T09:01:14;8.85;;;6.80;;
34673;SDS011;20879;55.668;37.858;2022-08-05T09:03:45;9.50;;;6.55;;
34673;SDS011;20879;55.668;37.858;2022-08-05T09:06:23;9.40;;;6.80;;
34673;SDS011;20879;55.668;37.858;2022-08-05T09:08:56;12.07;;;7.78;;
34673;SDS011;20879;55.668;37.858;2022-08-05T09:11:27;8.32;;;7.22;;
34673;SDS011;20879;55.668;37.858;2022-08-05T09:14:19;8.80;;;7.60;;
34673;SDS011;20879;55.668;37.858;2022-08-05T09:17:10;17.88;;;7.18;;
34673;SDS011;20879;55.668;37.858;2022-08-05T09:20:00;9.20;;;7.88;;
34673;SDS011;20879;55.668;37.858;2022-08-05T09:25:35;12.07;;;8.18;;
34673;SDS011;20879;55.668;37.858;2022-08-05T09:28:26;9.93;;;7.95;;
34673;SDS011;20879;55.668;37.858;2022-08-05T09:31:02;13.82;;;8.27;;
34673;SDS011;20879;55.668;37.858;2022-08-05T09:33:53;9.85;;;8.00;;
34673;SDS011;20879;55.668;37.858;2022-08-05T09:36:25;9.75;;;8.13;;
34673;SDS011;20879;55.668;37.858;2022-08-05T09:39:22;12.27;;;8.75;;
34673;SDS011;20879;55.668;37.858;2022-08-05T09:42:12;10.88;;;8.50;;
34673;SDS011;20879;55.668;37.858;2022-08-05T09:44:53;14.23;;;8.55;;
34673;SDS011;20879;55.668;37.858;2022-08-05T09:47:45;13.50;;;8.27;;
34673;SDS011;20879;55.668;37.858;2022-08-05T09:50:32;15.23;;;8.88;;
34673;SDS011;20879;55.668;37.858;2022-08-05T09:53:09;10.90;;;8.18;;
34673;SDS011;20879;55.668;37.858;2022-08-05T09:55:55;9.38;;;6.97;;
34673;SDS011;20879;55.668;37.858;2022-08-05T09:58:39;10.52;;;8.30;;
34673;SDS011;20879;55.668;37.858;2022-08-05T10:01:10;11.02;;;9.23;;
34673;SDS011;20879;55.668;37.858;2022-08-05T10:04:00;9.52;;;7.97;;
34673;SDS011;20879;55.668;37.858;2022-08-05T10:06:36;12.48;;;8.77;;
34673;SDS011;20879;55.668;37.858;2022-08-05T10:09:16;10.18;;;8.68;;
34673;SDS011;20879;55.668;37.858;2022-08-05T10:12:06;12.40;;;8.52;;
34673;SDS011;20879;55.668;37.858;2022-08-05T10:20:35;13.35;;;8.43;;
34673;SDS011;20879;55.668;37.858;2022-08-05T10:23:10;13.07;;;8.63;;
34673;SDS011;20879;55.668;37.858;2022-08-05T10:26:02;9.15;;;7.88;;
34673;SDS011;20879;55.668;37.858;2022-08-05T10:28:40;9.55;;;8.40;;
34673;SDS011;20879;55.668;37.858;2022-08-05T10:31:12;9.55;;;7.80;;
34673;SDS011;20879;55.668;37.858;2022-08-05T10:36:36;12.00;;;8.45;;
34673;SDS011;20879;55.668;37.858;2022-08-05T10:39:08;11.57;;;8.02;;
34673;SDS011;20879;55.668;37.858;2022-08-05T10:42:06;10.63;;;7.82;;
34673;SDS011;20879;55.668;37.858;2022-08-05T10:47:14;9.60;;;8.00;;
34673;SDS011;20879;55.668;37.858;2022-08-05T10:50:00;9.93;;;7.75;;
34673;SDS011;20879;55.668;37.858;2022-08-05T10:52:59;9.38;;;7.85;;
34673;SDS011;20879;55.668;37.858;2022-08-05T10:55:29;10.70;;;6.88;;
34673;SDS011;20879;55.668;37.858;2022-08-05T10:58:18;10.75;;;7.07;;
34673;SDS011;20879;55.668;37.858;2022-08-05T11:01:09;13.48;;;7.00;;
34673;SDS011;20879;55.668;37.858;2022-08-05T11:06:28;7.03;;;6.32;;
34673;SDS011;20879;55.668;37.858;2022-08-05T11:12:05;8.98;;;6.47;;
34673;SDS011;20879;55.668;37.858;2022-08-05T11:15:18;8.57;;;6.63;;
34673;SDS011;20879;55.668;37.858;2022-08-05T11:20:52;9.32;;;6.53;;
34673;SDS011;20879;55.668;37.858;2022-08-05T11:23:29;8.02;;;6.50;;
34673;SDS011;20879;55.668;37.858;2022-08-05T11:26:23;12.35;;;6.30;;
34673;SDS011;20879;55.668;37.858;2022-08-05T11:28:58;9.02;;;6.88;;
34673;SDS011;20879;55.668;37.858;2022-08-05T11:31:40;11.90;;;6.57;;
34673;SDS011;20879;55.668;37.858;2022-08-05T11:34:34;6.57;;;5.90;;
34673;SDS011;20879;55.668;37.858;2022-08-05T11:40:57;7.93;;;6.07;;
34673;SDS011;20879;55.668;37.858;2022-08-05T11:43:54;6.30;;;5.20;;
34673;SDS011;20879;55.668;37.858;2022-08-05T11:46:33;8.40;;;5.38;;
34673;SDS011;20879;55.668;37.858;2022-08-05T11:49:30;7.97;;;6.55;;
34673;SDS011;20879;55.668;37.858;2022-08-05T11:52:00;6.97;;;5.30;;
34673;SDS011;20879;55.668;37.858;2022-08-05T11:54:37;11.35;;;5.38;;
34673;SDS011;20879;55.668;37.858;2022-08-05T11:57:09;9.77;;;6.00;;
34673;SDS011;20879;55.668;37.858;2022-08-05T11:59:53;7.35;;;5.93;;
34673;SDS011;20879;55.668;37.858;2022-08-05T12:02:24;7.15;;;5.15;;
34673;SDS011;20879;55.668;37.858;2022-08-05T12:04:59;6.20;;;4.78;;
34673;SDS011;20879;55.668;37.858;2022-08-05T12:07:43;8.32;;;5.90;;
34673;SDS011;20879;55.668;37.858;2022-08-05T12:10:34;7.30;;;5.60;;
34673;SDS011;20879;55.668;37.858;2022-08-05T12:13:12;7.10;;;5.30;;
34673;SDS011;20879;55.668;37.858;2022-08-05T12:16:05;6.20;;;5.55;;
34673;SDS011;20879;55.668;37.858;2022-08-05T12:18:41;7.82;;;5.57;;
34673;SDS011;20879;55.668;37.858;2022-08-05T12:21:21;7.15;;;6.18;;
34673;SDS011;20879;55.668;37.858;2022-08-05T12:23:59;8.77;;;6.15;;
34673;SDS011;20879;55.668;37.858;2022-08-05T12:26:33;9.15;;;6.40;;
34673;SDS011;20879;55.668;37.858;2022-08-05T12:29:05;9.18;;;6.40;;
34673;SDS011;20879;55.668;37.858;2022-08-05T12:31:48;8.25;;;6.63;;
34673;SDS011;20879;55.668;37.858;2022-08-05T12:34:20;9.77;;;6.25;;
34673;SDS011;20879;55.668;37.858;2022-08-05T12:36:56;12.63;;;6.82;;
34673;SDS011;20879;55.668;37.858;2022-08-05T12:39:36;7.70;;;6.88;;
34673;SDS011;20879;55.668;37.858;2022-08-05T12:42:09;11.07;;;7.00;;
34673;SDS011;20879;55.668;37.858;2022-08-05T12:44:41;9.43;;;6.20;;
34673;SDS011;20879;55.668;37.858;2022-08-05T12:47:23;11.57;;;6.88;;
34673;SDS011;20879;55.668;37.858;2022-08-05T12:49:56;9.60;;;6.05;;
34673;SDS011;20879;55.668;37.858;2022-08-05T12:57:36;7.60;;;5.70;;
34673;SDS011;20879;55.668;37.858;2022-08-05T13:00:26;8.38;;;6.25;;
34673;SDS011;20879;55.668;37.858;2022-08-05T13:05:48;6.32;;;5.70;;
34673;SDS011;20879;55.668;37.858;2022-08-05T13:08:17;10.95;;;6.28;;
34673;SDS011;20879;55.668;37.858;2022-08-05T13:10:57;7.60;;;5.82;;
34673;SDS011;20879;55.668;37.858;2022-08-05T13:13:32;6.57;;;5.68;;
34673;SDS011;20879;55.668;37.858;2022-08-05T13:16:26;8.18;;;6.20;;
34673;SDS011;20879;55.668;37.858;2022-08-05T13:18:55;9.48;;;6.47;;
34673;SDS011;20879;55.668;37.858;2022-08-05T13:21:26;7.38;;;5.80;;
34673;SDS011;20879;55.668;37.858;2022-08-05T13:24:04;7.22;;;6.15;;
34673;SDS011;20879;55.668;37.858;2022-08-05T13:26:35;9.38;;;6.13;;
34673;SDS011;20879;55.668;37.858;2022-08-05T13:29:08;8.05;;;6.18;;
34673;SDS011;20879;55.668;37.858;2022-08-05T13:31:44;8.32;;;6.03;;
34673;SDS011;20879;55.668;37.858;2022-08-05T13:34:30;7.30;;;5.70;;
34673;SDS011;20879;55.668;37.858;2022-08-05T13:37:03;7.55;;;6.25;;
34673;SDS011;20879;55.668;37.858;2022-08-05T13:39:36;8.00;;;6.40;;
34673;SDS011;20879;55.668;37.858;2022-08-05T13:42:26;8.65;;;5.78;;
34673;SDS011;20879;55.668;37.858;2022-08-05T13:44:58;8.00;;;5.85;;
34673;SDS011;20879;55.668;37.858;2022-08-05T13:47:29;7.03;;;5.95;;
34673;SDS011;20879;55.668;37.858;2022-08-05T13:50:19;10.00;;;6.05;;
34673;SDS011;20879;55.668;37.858;2022-08-05T13:52:49;7.55;;;5.80;;
34673;SDS011;20879;55.668;37.858;2022-08-05T13:55:19;7.30;;;6.22;;
34673;SDS011;20879;55.668;37.858;2022-08-05T13:58:08;11.35;;;6.18;;
34673;SDS011;20879;55.668;37.858;2022-08-05T14:00:39;8.95;;;6.05;;
34673;SDS011;20879;55.668;37.858;2022-08-05T14:03:13;8.48;;;5.55;;
34673;SDS011;20879;55.668;37.858;2022-08-05T14:05:42;7.20;;;6.18;;
34673;SDS011;20879;55.668;37.858;2022-08-05T14:08:30;6.82;;;5.78;;
34673;SDS011;20879;55.668;37.858;2022-08-05T14:11:00;7.43;;;6.00;;
34673;SDS011;20879;55.668;37.858;2022-08-05T14:13:47;8.27;;;6.20;;
34673;SDS011;20879;55.668;37.858;2022-08-05T14:16:25;8.18;;;6.07;;
34673;SDS011;20879;55.668;37.858;2022-08-05T14:18:56;10.90;;;6.20;;
34673;SDS011;20879;55.668;37.858;2022-08-05T14:21:30;8.23;;;6.50;;
34673;SDS011;20879;55.668;37.858;2022-08-05T14:24:19;9.13;;;6.57;;
34673;SDS011;20879;55.668;37.858;2022-08-05T14:26:48;8.32;;;6.30;;
34673;SDS011;20879;55.668;37.858;2022-08-05T14:29:38;10.60;;;6.32;;
34673;SDS011;20879;55.668;37.858;2022-08-05T14:32:09;9.75;;;6.22;;
34673;SDS011;20879;55.668;37.858;2022-08-05T14:34:43;8.75;;;6.50;;
34673;SDS011;20879;55.668;37.858;2022-08-05T14:37:12;8.55;;;6.15;;
34673;SDS011;20879;55.668;37.858;2022-08-05T14:39:44;8.90;;;6.10;;
34673;SDS011;20879;55.668;37.858;2022-08-05T14:42:22;9.05;;;5.93;;
34673;SDS011;20879;55.668;37.858;2022-08-05T14:44:52;10.23;;;6.25;;
34673;SDS011;20879;55.668;37.858;2022-08-05T14:47:24;10.70;;;7.22;;
34673;SDS011;20879;55.668;37.858;2022-08-05T14:52:51;9.52;;;6.20;;
34673;SDS011;20879;55.668;37.858;2022-08-05T14:55:24;8.02;;;6.05;;
34673;SDS011;20879;55.668;37.858;2022-08-05T14:58:06;9.63;;;6.30;;
34673;SDS011;20879;55.668;37.858;2022-08-05T15:00:40;8.90;;;6.38;;
34673;SDS011;20879;55.668;37.858;2022-08-05T15:03:29;9.27;;;6.13;;
34673;SDS011;20879;55.668;37.858;2022-08-05T15:06:06;10.05;;;7.15;;
34673;SDS011;20879;55.668;37.858;2022-08-05T15:08:42;9.55;;;6.82;;
34673;SDS011;20879;55.668;37.858;2022-08-05T15:11:29;9.55;;;6.95;;
34673;SDS011;20879;55.668;37.858;2022-08-05T15:14:21;14.65;;;7.05;;
34673;SDS011;20879;55.668;37.858;2022-08-05T15:17:04;9.00;;;6.88;;
34673;SDS011;20879;55.668;37.858;2022-08-05T15:19:56;12.35;;;6.55;;
34673;SDS011;20879;55.668;37.858;2022-08-05T15:22:25;7.65;;;6.35;;
34673;SDS011;20879;55.668;37.858;2022-08-05T15:24:55;9.18;;;6.35;;
34673;SDS011;20879;55.668;37.858;2022-08-05T15:27:26;7.47;;;6.32;;
34673;SDS011;20879;55.668;37.858;2022-08-05T15:30:01;15.27;;;7.00;;
34673;SDS011;20879;55.668;37.858;2022-08-05T15:35:03;7.53;;;6.35;;
34673;SDS011;20879;55.668;37.858;2022-08-05T15:37:38;13.18;;;6.63;;
34673;SDS011;20879;55.668;37.858;2022-08-05T15:40:27;10.88;;;6.50;;
34673;SDS011;20879;55.668;37.858;2022-08-05T15:43:17;11.52;;;6.78;;
34673;SDS011;20879;55.668;37.858;2022-08-05T15:45:47;7.83;;;6.67;;
34673;SDS011;20879;55.668;37.858;2022-08-05T15:48:27;21.25;;;7.65;;
34673;SDS011;20879;55.668;37.858;2022-08-05T15:50:59;12.43;;;6.95;;
34673;SDS011;20879;55.668;37.858;2022-08-05T15:53:31;12.07;;;7.10;;
34673;SDS011;20879;55.668;37.858;2022-08-05T15:56:16;18.38;;;9.43;;
34673;SDS011;20879;55.668;37.858;2022-08-05T15:58:46;9.70;;;7.20;;
34673;SDS011;20879;55.668;37.858;2022-08-05T16:01:16;11.30;;;7.38;;
34673;SDS011;20879;55.668;37.858;2022-08-05T16:03:46;17.10;;;7.55;;
34673;SDS011;20879;55.668;37.858;2022-08-05T16:06:18;11.40;;;6.95;;
34673;SDS011;20879;55.668;37.858;2022-08-05T16:08:48;11.43;;;7.00;;
34673;SDS011;20879;55.668;37.858;2022-08-05T16:11:21;12.13;;;7.00;;
34673;SDS011;20879;55.668;37.858;2022-08-05T16:14:09;10.38;;;6.53;;
34673;SDS011;20879;55.668;37.858;2022-08-05T16:16:44;10.38;;;6.88;;
34673;SDS011;20879;55.668;37.858;2022-08-05T16:19:13;10.88;;;6.75;;
34673;SDS011;20879;55.668;37.858;2022-08-05T16:22:05;8.07;;;6.13;;
34673;SDS011;20879;55.668;37.858;2022-08-05T16:24:36;13.63;;;7.18;;
34673;SDS011;20879;55.668;37.858;2022-08-05T16:27:18;10.95;;;6.82;;
34673;SDS011;20879;55.668;37.858;2022-08-05T16:30:09;11.93;;;7.28;;
34673;SDS011;20879;55.668;37.858;2022-08-05T16:32:54;8.05;;;6.93;;
34673;SDS011;20879;55.668;37.858;2022-08-05T16:35:24;8.88;;;6.82;;
34673;SDS011;20879;55.668;37.858;2022-08-05T16:38:01;10.98;;;7.10;;
34673;SDS011;20879;55.668;37.858;2022-08-05T16:40:50;13.50;;;7.50;;
34673;SDS011;20879;55.668;37.858;2022-08-05T16:43:27;9.23;;;6.95;;
34673;SDS011;20879;55.668;37.858;2022-08-05T16:45:59;13.43;;;7.68;;
34673;SDS011;20879;55.668;37.858;2022-08-05T16:48:49;8.32;;;7.28;;
34673;SDS011;20879;55.668;37.858;2022-08-05T16:51:18;11.95;;;7.50;;
34673;SDS011;20879;55.668;37.858;2022-08-05T16:53:50;11.13;;;8.45;;
34673;SDS011;20879;55.668;37.858;2022-08-05T16:56:37;14.23;;;9.52;;
34673;SDS011;20879;55.668;37.858;2022-08-05T16:59:07;12.70;;;8.43;;
34673;SDS011;20879;55.668;37.858;2022-08-05T17:01:42;16.63;;;9.50;;
34673;SDS011;20879;55.668;37.858;2022-08-05T17:04:20;16.27;;;9.45;;
34673;SDS011;20879;55.668;37.858;2022-08-05T17:06:53;15.50;;;9.65;;
34673;SDS011;20879;55.668;37.858;2022-08-05T17:09:29;17.08;;;11.07;;